UACC/TSE METAR and TAF weather

Enter ICAO airport designator
Station Type Date Time Source
UACC METAR 2020/01/27 17:00 UTC NOAA

UACC 271700Z 23009MPS 8000 -SN BKN012 OVC040 M09/M10 Q1007 R22/3///40 NOSIG RMK QFE724/0965


Station Type Date Time Source
UACC Decoded METAR 2020/01/27 17:00 UTC NOAA

Astana, Kazakhstan (UACC) 51-12N 071-27E
Jan 27, 2020 - 12:00 PM EST / 2020.01.27 1700 UTC
Wind: from the SW (230 degrees) at 20 MPH (17 KT):0
Visibility: 4 mile(s):0
Sky conditions: overcast
Weather: light snow
Temperature: 15 F (-9 C)
Windchill: -2 F (-19 C):1
Dew Point: 14 F (-10 C)
Relative Humidity: 92%
Pressure (altimeter): 29.74 in. Hg (1007 hPa)
ob: UACC 271700Z 23009MPS 8000 -SN BKN012 OVC040 M09/M10 Q1007 R22/3///40 NOSIG RMK QFE724/0965
cycle: 17

Station Type Date Time Source
UACC TAF 2020/01/27 12:21 UTC NOAA

TAF UACC 271100Z 2712/2812 23010MPS 3100 SN BLSN BKN011 OVC020 TXM05/2809Z TNM12/2723Z
TEMPO 2712/2724 24011G16MPS 1500 SHSN BLSN BKN005 BKN020CB
FM280000 23011MPS 1500 SN BLSN FEW007 OVC011
TEMPO 2800/2810 22011G16MPS 0600 +SHSN BLSN BKN004 BKN020CB
TEMPO 2810/2812 27009G14MPS 4000 SHSN BLSN FEW004 BKN011CB

Example: see airport list